Time;durP1;ratioP1;P1;durP2;ratioP2;P2;SDS_P1;SDS_P2;PMS_P1;PMS_P2;Temp;Humidity;BMP_temperature;BMP_pressure;BME280_temperature;BME280_humidity;BME280_pressure;Samples;Min_cycle;Max_cycle;Signal;HPM_P1;HPM_P2
2023/11/08 00:01:06;;;;;;;68.20;39.75;;;;;;;;;;5020451;28;20048;-70
2023/11/08 00:03:32;;;;;;;56.42;35.80;;;;;;;;;;5020146;28;20030;-70
2023/11/08 00:05:58;;;;;;;71.07;36.67;;;;;;;;;;5020361;28;20037;-71
2023/11/08 00:08:24;;;;;;;71.85;37.47;;;10.50;99.90;;;;;;5020181;28;20017;-70
2023/11/08 00:10:49;;;;;;;193.07;40.67;;;10.20;99.90;;;;;;5020145;28;20203;-70
2023/11/08 00:13:20;;;;;;;198.75;44.40;;;;;;;;;;5002603;28;20300;-70
2023/11/08 00:15:47;;;;;;;375.27;49.50;;;10.20;99.90;;;;;;5020243;28;20036;-71
2023/11/08 00:18:13;;;;;;;108.25;44.47;;;10.00;99.90;;;;;;5012469;28;20029;-70
2023/11/08 00:20:39;;;;;;;76.70;43.00;;;9.70;99.90;;;;;;5020296;28;20310;-70
2023/11/08 00:23:05;;;;;;;147.23;46.10;;;9.80;99.90;;;;;;5018752;28;20314;-70
2023/11/08 00:25:30;;;;;;;125.32;45.28;;;10.00;99.90;;;;;;5007099;28;20018;-70
2023/11/08 00:27:56;;;;;;;119.63;40.40;;;;;;;;;;5003498;28;20356;-70
2023/11/08 00:30:22;;;;;;;225.80;44.42;;;;;;;;;;5019903;28;20214;-70
2023/11/08 00:32:48;;;;;;;236.63;38.42;;;;;;;;;;5019880;28;20037;-70
2023/11/08 00:35:14;;;;;;;535.38;40.80;;;9.50;99.90;;;;;;5019957;28;20014;-70
2023/11/08 00:37:39;;;;;;;423.10;36.10;;;9.40;99.90;;;;;;5019772;28;20045;-70
2023/11/08 00:40:06;;;;;;;504.60;32.47;;;9.50;99.90;;;;;;5025734;28;20263;-71
2023/11/08 00:42:32;;;;;;;320.17;26.35;;;;;;;;;;5039387;28;20104;-70
2023/11/08 00:44:58;;;;;;;358.35;25.17;;;;;;;;;;5041511;28;20045;-70
2023/11/08 00:47:24;;;;;;;345.30;24.73;;;;;;;;;;5043388;28;20025;-69
2023/11/08 00:49:50;;;;;;;183.23;23.08;;;;;;;;;;5043592;28;20036;-70
2023/11/08 00:52:16;;;;;;;271.88;23.80;;;9.60;99.90;;;;;;5043063;28;20017;-70
2023/11/08 00:54:42;;;;;;;51.83;21.17;;;;;;;;;;5043223;28;20048;-70
2023/11/08 00:57:08;;;;;;;69.63;21.85;;;;;;;;;;5043132;28;20049;-69
2023/11/08 00:59:35;;;;;;;68.82;21.88;;;9.30;99.90;;;;;;5043103;28;20040;-72
2023/11/08 01:02:02;;;;;;;54.25;21.15;;;9.30;99.90;;;;;;5042977;28;20061;-71
2023/11/08 01:04:28;;;;;;;97.95;21.42;;;;;;;;;;5042865;28;20025;-71
2023/11/08 01:06:54;;;;;;;90.20;20.08;;;9.40;99.90;;;;;;5042880;28;20051;-70
2023/11/08 01:09:20;;;;;;;193.52;20.95;;;9.60;99.90;;;;;;5043024;28;20022;-70
2023/11/08 01:11:48;;;;;;;65.15;17.27;;;;;;;;;;5042757;28;20028;-70
2023/11/08 01:14:15;;;;;;;173.13;18.63;;;;;;;;;;5042703;28;20029;-70
2023/11/08 01:16:40;;;;;;;55.05;17.65;;;9.40;99.90;;;;;;5042764;28;20018;-70
2023/11/08 01:19:07;;;;;;;51.17;17.67;;;;;;;;;;5042967;28;20328;-70
2023/11/08 01:21:33;;;;;;;51.60;18.70;;;;;;;;;;5042911;28;20025;-69
2023/11/08 01:24:00;;;;;;;44.97;17.83;;;9.50;99.90;;;;;;5042734;28;20041;-70
2023/11/08 01:26:25;;;;;;;31.35;15.90;;;9.60;99.90;;;;;;5024744;28;20080;-70
2023/11/08 01:28:51;;;;;;;39.28;16.08;;;9.80;99.90;;;;;;5042610;28;20041;-70
2023/11/08 01:31:17;;;;;;;62.35;17.27;;;;;;;;;;5042579;28;20021;-69
2023/11/08 01:33:43;;;;;;;69.88;16.20;;;;;;;;;;5042363;28;20060;-70
2023/11/08 01:36:09;;;;;;;274.38;18.40;;;;;;;;;;5042370;28;20363;-70
2023/11/08 01:50:46;;;;;;;29.77;12.82;;;9.00;99.90;;;;;;5139126;27;20391;-69
2023/11/08 01:53:12;;;;;;;30.35;13.18;;;9.10;99.90;;;;;;5138831;28;20023;-70
2023/11/08 01:55:38;;;;;;;20.23;9.80;;;;;;;;;;5159684;27;20194;-70
2023/11/08 01:58:04;;;;;;;20.77;10.13;;;8.50;99.90;;;;;;5141936;27;20018;-69
2023/11/08 02:00:31;;;;;;;23.02;10.70;;;8.80;99.90;;;;;;5160373;27;20124;-70
2023/11/08 02:02:57;;;;;;;26.35;11.23;;;8.90;99.90;;;;;;5160244;27;20035;-69
2023/11/08 02:05:23;;;;;;;23.67;11.40;;;;;;;;;;5160213;27;20079;-70
2023/11/08 02:07:49;;;;;;;23.77;11.15;;;8.50;99.90;;;;;;5159919;27;20317;-69
2023/11/08 02:10:15;;;;;;;16.02;8.55;;;8.40;99.90;;;;;;5159539;27;20026;-69
2023/11/08 02:12:42;;;;;;;25.08;10.77;;;8.70;99.90;;;;;;5159570;27;20023;-69
2023/11/08 02:15:11;;;;;;;14.15;6.95;;;8.30;99.90;;;;;;5159616;27;20023;-69
2023/11/08 02:17:37;;;;;;;14.77;5.80;;;8.90;99.90;;;;;;5159545;27;20034;-70
2023/11/08 02:20:06;;;;;;;9.43;5.78;;;;;;;;;;5158947;27;20042;-70
2023/11/08 02:22:35;;;;;;;11.25;6.00;;;9.10;99.90;;;;;;5159015;27;20014;-69
2023/11/08 02:25:01;;;;;;;11.38;5.63;;;;;;;;;;5159229;27;20026;-69
2023/11/08 02:27:27;;;;;;;8.45;4.63;;;;;;;;;;5159007;27;20023;-70
2023/11/08 02:29:53;;;;;;;5.90;2.33;;;;;;;;;;5158884;27;20299;-69
2023/11/08 02:32:18;;;;;;;2.70;1.90;;;8.70;99.90;;;;;;5159001;27;20038;-70
2023/11/08 02:34:44;;;;;;;5.72;2.85;;;8.60;99.90;;;;;;5158783;27;20019;-70
2023/11/08 02:37:10;;;;;;;5.25;3.50;;;;;;;;;;5158777;27;20018;-70
2023/11/08 02:39:36;;;;;;;5.28;3.92;;;8.70;99.90;;;;;;5158554;27;20027;-69
2023/11/08 02:42:02;;;;;;;6.65;4.15;;;;;;;;;;5158606;27;20023;-70
2023/11/08 02:44:28;;;;;;;7.38;4.68;;;8.70;99.90;;;;;;5157337;27;20019;-69
2023/11/08 02:46:54;;;;;;;6.22;4.35;;;;;;;;;;5158510;27;20080;-69
2023/11/08 02:49:19;;;;;;;10.05;5.63;;;9.40;99.90;;;;;;5156996;27;20230;-69
2023/11/08 02:51:45;;;;;;;12.88;6.10;;;8.90;99.90;;;;;;5144569;27;20027;-69
2023/11/08 02:54:11;;;;;;;8.05;5.93;;;9.30;99.90;;;;;;5144548;27;20011;-69
2023/11/08 02:56:38;;;;;;;10.05;6.20;;;8.90;99.90;;;;;;5144423;27;20063;-69
2023/11/08 02:59:04;;;;;;;10.45;6.15;;;;;;;;;;5144515;27;20039;-69
2023/11/08 03:01:30;;;;;;;10.93;6.85;;;8.80;99.90;;;;;;5143096;27;20011;-69
2023/11/08 03:03:55;;;;;;;12.60;6.57;;;9.10;99.90;;;;;;5144337;27;20026;-69
2023/11/08 03:06:21;;;;;;;12.32;7.80;;;;;;;;;;5144290;27;20019;-69
2023/11/08 03:08:48;;;;;;;12.48;8.23;;;8.80;99.90;;;;;;5144293;27;20086;-69
2023/11/08 03:11:13;;;;;;;15.88;7.93;;;8.70;99.90;;;;;;5144375;27;20044;-70
2023/11/08 03:13:40;;;;;;;13.23;8.13;;;;;;;;;;5144322;27;20046;-69
2023/11/08 03:16:06;;;;;;;15.02;8.50;;;8.90;99.90;;;;;;5144305;27;20461;-76
2023/11/08 03:18:32;;;;;;;16.33;9.20;;;8.80;99.90;;;;;;5144217;27;20027;-69
2023/11/08 03:20:58;;;;;;;13.80;8.43;;;;;;;;;;5144174;27;20094;-69
2023/11/08 03:23:24;;;;;;;14.68;9.25;;;9.00;99.90;;;;;;5144337;27;20018;-70
2023/11/08 03:25:51;;;;;;;16.88;8.43;;;;;;;;;;5144110;27;20027;-69
2023/11/08 03:28:17;;;;;;;15.43;8.95;;;9.00;99.90;;;;;;5144072;27;20019;-70
2023/11/08 03:30:43;;;;;;;11.90;7.55;;;;;;;;;;5143895;27;20078;-68
2023/11/08 03:33:09;;;;;;;11.75;8.25;;;8.90;99.90;;;;;;5144004;27;20011;-69
2023/11/08 03:35:36;;;;;;;12.65;7.60;;;;;;;;;;5143863;27;20112;-70
2023/11/08 03:38:02;;;;;;;11.60;7.47;;;;;;;;;;5143578;27;20034;-69
2023/11/08 03:40:27;;;;;;;13.88;8.50;;;8.60;99.90;;;;;;5143532;27;20046;-69
2023/11/08 03:42:53;;;;;;;13.75;8.00;;;8.80;99.90;;;;;;5143449;27;20354;-69
2023/11/08 03:45:19;;;;;;;15.75;9.18;;;;;;;;;;5143824;27;20019;-69
2023/11/08 03:47:46;;;;;;;13.38;8.88;;;8.80;99.90;;;;;;5142205;27;20023;-69
2023/11/08 03:50:12;;;;;;;13.77;8.23;;;8.90;99.90;;;;;;5143301;27;20043;-68
2023/11/08 03:52:37;;;;;;;12.45;7.20;;;8.70;99.90;;;;;;5143778;27;20257;-69
2023/11/08 03:55:04;;;;;;;12.20;6.82;;;8.70;99.90;;;;;;5143511;27;20179;-69
2023/11/08 03:57:31;;;;;;;11.57;7.90;;;;;;;;;;5143451;27;20091;-69
2023/11/08 03:59:57;;;;;;;13.07;7.07;;;;;;;;;;5143204;27;20041;-69
2023/11/08 04:02:24;;;;;;;13.40;7.38;;;8.50;99.90;;;;;;5142268;27;20016;-69
2023/11/08 04:04:51;;;;;;;10.77;6.07;;;;;;;;;;5141986;27;20046;-69
2023/11/08 04:07:20;;;;;;;11.63;5.93;;;8.70;99.90;;;;;;5143108;27;20026;-69
2023/11/08 04:09:46;;;;;;;11.02;5.80;;;8.70;99.90;;;;;;5143089;27;20027;-69
2023/11/08 04:12:12;;;;;;;10.35;6.22;;;8.80;99.90;;;;;;5141692;27;20057;-68
2023/11/08 04:14:38;;;;;;;11.82;6.68;;;8.70;99.90;;;;;;5143259;27;20027;-67
2023/11/08 04:17:05;;;;;;;10.15;6.88;;;8.70;99.90;;;;;;5142929;27;20015;-68
2023/11/08 04:19:31;;;;;;;11.02;7.30;;;;;;;;;;5142779;27;20386;-68
2023/11/08 04:21:57;;;;;;;9.77;7.05;;;8.90;99.90;;;;;;5142819;27;20375;-68
2023/11/08 04:24:23;;;;;;;11.60;6.85;;;;;;;;;;5142969;27;20053;-68
2023/11/08 04:26:49;;;;;;;10.88;7.85;;;8.50;99.90;;;;;;5142724;27;20226;-68
2023/11/08 04:29:15;;;;;;;10.75;6.57;;;;;;;;;;5142747;27;20030;-69
2023/11/08 04:31:41;;;;;;;10.27;6.40;;;8.50;99.90;;;;;;5142603;27;20356;-68
2023/11/08 04:34:07;;;;;;;13.13;6.97;;;;;;;;;;5142876;27;20366;-68
2023/11/08 04:36:32;;;;;;;10.90;7.72;;;8.50;99.90;;;;;;5142659;27;20087;-68
2023/11/08 04:38:59;;;;;;;12.98;8.13;;;8.50;99.90;;;;;;5142660;27;20023;-69
2023/11/08 04:41:25;;;;;;;9.38;6.50;;;8.50;99.90;;;;;;5141233;27;20038;-70
2023/11/08 04:43:51;;;;;;;10.15;6.75;;;;;;;;;;5142822;27;20027;-70
2023/11/08 04:46:18;;;;;;;9.55;6.70;;;8.60;99.90;;;;;;5142590;27;20079;-69
2023/11/08 04:48:46;;;;;;;9.18;6.57;;;8.50;99.90;;;;;;5142398;27;20397;-69
2023/11/08 04:51:13;;;;;;;8.32;6.13;;;8.50;99.90;;;;;;5142675;27;20027;-69
2023/11/08 04:53:38;;;;;;;9.52;7.38;;;8.40;99.90;;;;;;5142429;27;20123;-69
2023/11/08 04:56:04;;;;;;;10.50;6.32;;;8.50;99.90;;;;;;5141149;27;20015;-70
2023/11/08 04:58:31;;;;;;;9.48;5.53;;;;;;;;;;5142432;27;20389;-70
2023/11/08 05:00:57;;;;;;;9.43;5.65;;;8.70;99.90;;;;;;5142317;27;20022;-70
2023/11/08 05:03:23;;;;;;;6.70;5.50;;;8.50;99.90;;;;;;5142252;27;20303;-69
2023/11/08 05:05:49;;;;;;;10.95;6.25;;;8.70;99.90;;;;;;5142247;27;20028;-69
2023/11/08 05:08:14;;;;;;;6.00;4.60;;;8.40;99.90;;;;;;5141974;27;20046;-69
2023/11/08 05:10:40;;;;;;;5.55;3.78;;;8.40;99.90;;;;;;5141985;27;20022;-69
2023/11/08 05:13:06;;;;;;;8.35;4.75;;;;;;;;;;5141832;27;20249;-69
2023/11/08 05:15:32;;;;;;;4.30;3.30;;;;;;;;;;5140658;27;20038;-69
2023/11/08 05:18:00;;;;;;;7.05;4.93;;;8.40;99.90;;;;;;5120820;27;20323;-69
2023/11/08 05:20:26;;;;;;;9.27;6.55;;;8.30;99.90;;;;;;5121435;28;20035;-68
2023/11/08 05:22:54;;;;;;;6.10;4.05;;;8.30;99.90;;;;;;5121278;28;20058;-69
2023/11/08 05:25:20;;;;;;;8.63;5.47;;;8.40;99.90;;;;;;5118608;28;20025;-68
2023/11/08 05:27:45;;;;;;;7.90;5.70;;;8.40;99.90;;;;;;5100046;28;20028;-68
2023/11/08 05:30:14;;;;;;;8.63;5.43;;;8.20;99.90;;;;;;5099969;28;20339;-69
2023/11/08 05:32:40;;;;;;;7.93;5.60;;;;;;;;;;5112652;28;20031;-69
2023/11/08 05:35:07;;;;;;;10.20;5.50;;;8.20;99.90;;;;;;5120869;28;20019;-69
2023/11/08 05:37:33;;;;;;;6.22;4.32;;;8.30;99.90;;;;;;5121188;28;20030;-71
2023/11/08 05:39:59;;;;;;;6.72;4.82;;;8.50;99.90;;;;;;5120957;28;20031;-71
2023/11/08 05:42:26;;;;;;;9.73;4.88;;;8.90;99.90;;;;;;5121045;28;20237;-69
2023/11/08 05:44:58;;;;;;;6.18;3.90;;;8.30;99.90;;;;;;5121237;28;20100;-70
2023/11/08 05:47:24;;;;;;;6.30;4.57;;;;;;;;;;5121174;28;20019;-69
2023/11/08 05:49:50;;;;;;;6.90;4.28;;;;;;;;;;5120729;28;20036;-70
2023/11/08 05:52:18;;;;;;;5.75;4.70;;;8.40;99.90;;;;;;5121151;28;20020;-70
2023/11/08 05:54:44;;;;;;;5.55;4.40;;;8.50;99.90;;;;;;5115284;28;20023;-72
2023/11/08 05:57:10;;;;;;;7.30;4.35;;;8.40;99.90;;;;;;5100593;28;20069;-73
2023/11/08 05:59:37;;;;;;;5.97;4.38;;;;;;;;;;5100635;28;20024;-73
2023/11/08 06:02:03;;;;;;;4.60;3.85;;;8.30;99.90;;;;;;5100354;28;20043;-73
2023/11/08 06:04:29;;;;;;;6.00;4.47;;;8.30;99.90;;;;;;5100588;28;20027;-73
2023/11/08 06:06:55;;;;;;;4.68;4.10;;;8.60;99.90;;;;;;5100351;28;20307;-74
2023/11/08 06:09:21;;;;;;;5.82;4.00;;;;;;;;;;5100453;28;20055;-73
2023/11/08 06:11:49;;;;;;;7.28;4.03;;;8.40;99.90;;;;;;5133356;28;20050;-73
2023/11/08 06:14:15;;;;;;;4.60;3.43;;;;;;;;;;5140083;28;20218;-72
2023/11/08 06:16:41;;;;;;;3.17;2.83;;;8.20;99.90;;;;;;5141180;28;20311;-73
2023/11/08 06:19:08;;;;;;;3.45;3.00;;;8.40;99.90;;;;;;5141166;27;20061;-73
2023/11/08 06:21:34;;;;;;;4.80;3.50;;;8.30;99.90;;;;;;5141270;27;20053;-72
2023/11/08 06:24:00;;;;;;;4.63;3.58;;;;;;;;;;5141272;27;20027;-73
2023/11/08 06:26:26;;;;;;;7.00;4.30;;;8.00;99.90;;;;;;5142596;27;20026;-73
2023/11/08 06:28:52;;;;;;;4.95;4.03;;;8.40;99.90;;;;;;5145243;27;20051;-73
2023/11/08 06:31:22;;;;;;;5.95;4.70;;;8.40;99.90;;;;;;5145046;27;20022;-72
2023/11/08 06:33:48;;;;;;;6.00;4.65;;;8.30;99.90;;;;;;5145042;27;20019;-72
2023/11/08 06:36:14;;;;;;;17.73;6.68;;;6.40;99.90;;;;;;5143627;27;20019;-72
2023/11/08 06:38:40;;;;;;;6.95;4.28;;;8.70;99.90;;;;;;5144876;27;20058;-72
2023/11/08 06:41:07;;;;;;;4.30;3.10;;;8.50;99.90;;;;;;5145307;27;20042;-71
2023/11/08 06:43:33;;;;;;;4.03;3.17;;;8.50;99.90;;;;;;5144808;27;20090;-71
2023/11/08 06:45:59;;;;;;;4.38;3.97;;;8.70;99.90;;;;;;5144627;27;20015;-71
2023/11/08 06:48:25;;;;;;;4.45;4.05;;;8.40;99.90;;;;;;5144468;27;20034;-71
2023/11/08 06:50:51;;;;;;;8.98;4.68;;;;;;;;;;5144496;27;20050;-71
2023/11/08 06:53:17;;;;;;;5.78;4.60;;;;;;;;;;5143566;27;20051;-71
2023/11/08 06:55:46;;;;;;;5.45;4.07;;;;;;;;;;5143636;27;20065;-71
2023/11/08 06:58:14;;;;;;;5.93;4.03;;;8.50;99.90;;;;;;5143793;27;20015;-70
2023/11/08 07:00:40;;;;;;;4.93;3.30;;;;;;;;;;5144493;27;20030;-70
2023/11/08 07:03:06;;;;;;;6.82;3.75;;;8.50;99.90;;;;;;5144474;27;20029;-71
2023/11/08 07:05:33;;;;;;;6.60;3.85;;;;;;;;;;5142443;27;20011;-71
2023/11/08 07:07:59;;;;;;;6.13;4.05;;;8.60;99.90;;;;;;5143515;27;20050;-69
2023/11/08 07:10:25;;;;;;;5.57;4.15;;;;;;;;;;5143311;27;20022;-70
2023/11/08 07:12:53;;;;;;;8.60;4.15;;;;;;;;;;5143802;27;20035;-69
2023/11/08 07:15:19;;;;;;;4.97;4.05;;;;;;;;;;5144207;27;20046;-70
2023/11/08 07:17:45;;;;;;;4.85;3.78;;;8.70;99.90;;;;;;5144411;27;20015;-69
2023/11/08 07:20:11;;;;;;;6.90;3.92;;;;;;;;;;5144085;27;20322;-70
2023/11/08 07:22:37;;;;;;;5.20;3.50;;;8.80;99.90;;;;;;5144137;27;20027;-70
2023/11/08 07:25:03;;;;;;;6.20;3.85;;;8.80;99.90;;;;;;5144327;27;20015;-70
2023/11/08 07:27:30;;;;;;;5.45;4.10;;;8.90;99.90;;;;;;5143965;27;20116;-70
2023/11/08 07:29:56;;;;;;;6.03;4.05;;;;;;;;;;5144014;27;20337;-70
2023/11/08 07:32:23;;;;;;;4.95;3.75;;;9.30;99.90;;;;;;5143864;27;20019;-69
2023/11/08 07:34:49;;;;;;;5.50;3.80;;;;;;;;;;5143791;27;20019;-70
2023/11/08 07:37:15;;;;;;;7.47;3.88;;;;;;;;;;5135012;27;20047;-69
2023/11/08 07:39:41;;;;;;;6.00;3.80;;;9.60;99.90;;;;;;5121763;28;20046;-69
2023/11/08 07:42:08;;;;;;;5.68;4.15;;;9.90;99.90;;;;;;5122096;28;20034;-70
2023/11/08 07:44:34;;;;;;;4.43;4.03;;;9.70;99.90;;;;;;5122077;28;20019;-70
2023/11/08 07:47:00;;;;;;;8.07;3.97;;;;;;;;;;5123216;28;20023;-70
2023/11/08 07:49:29;;;;;;;16.02;4.82;;;10.10;99.90;;;;;;5122712;28;20115;-70
2023/11/08 07:51:55;;;;;;;4.13;3.70;;;10.20;99.90;;;;;;5121584;28;20069;-71
2023/11/08 07:54:20;;;;;;;5.05;3.60;;;10.00;99.90;;;;;;5123119;28;20058;-70
2023/11/08 07:56:46;;;;;;;4.65;3.88;;;;;;;;;;5123059;28;20019;-70
2023/11/08 07:59:13;;;;;;;5.97;3.65;;;10.20;99.90;;;;;;5122976;28;20035;-70
2023/11/08 08:01:38;;;;;;;4.25;3.85;;;10.30;99.90;;;;;;5123170;28;20066;-70
2023/11/08 08:04:05;;;;;;;6.50;4.03;;;10.50;99.90;;;;;;5122955;28;20322;-70
2023/11/08 08:06:31;;;;;;;4.47;3.65;;;10.30;98.80;;;;;;5123080;28;20016;-71
2023/11/08 08:08:57;;;;;;;5.25;3.45;;;10.30;99.90;;;;;;5121817;28;20042;-70
2023/11/08 08:11:23;;;;;;;4.88;3.45;;;;;;;;;;5121630;28;20016;-70
2023/11/08 08:13:49;;;;;;;4.40;3.40;;;10.60;99.90;;;;;;5122920;28;20023;-70
2023/11/08 08:16:19;;;;;;;6.97;3.35;;;10.20;99.90;;;;;;5122954;27;20199;-70
2023/11/08 08:18:46;;;;;;;3.58;3.10;;;10.50;99.90;;;;;;5123047;27;20031;-70
2023/11/08 08:21:13;;;;;;;7.13;2.83;;;10.90;99.90;;;;;;5122358;28;20341;-69
2023/11/08 08:23:39;;;;;;;4.10;3.10;;;10.30;99.90;;;;;;5121221;27;20024;-69
2023/11/08 08:26:05;;;;;;;4.22;3.15;;;10.50;99.90;;;;;;5122461;28;20349;-70
2023/11/08 08:28:35;;;;;;;3.30;2.40;;;;;;;;;;5122535;28;20090;-70
2023/11/08 08:31:04;;;;;;;4.40;2.45;;;10.70;96.20;;;;;;5122471;28;20008;-69
2023/11/08 08:33:30;;;;;;;2.47;2.25;;;10.50;99.90;;;;;;5122287;28;20024;-69
2023/11/08 08:35:59;;;;;;;3.03;2.35;;;10.80;99.90;;;;;;5122168;28;20043;-69
2023/11/08 08:38:24;;;;;;;2.28;2.08;;;10.90;99.60;;;;;;5120996;28;20015;-70
2023/11/08 08:40:51;;;;;;;3.50;2.10;;;;;;;;;;5122076;28;20023;-70
2023/11/08 08:43:18;;;;;;;5.43;2.13;;;10.90;94.30;;;;;;5120699;28;20087;-70
2023/11/08 08:45:45;;;;;;;4.00;2.05;;;10.80;99.90;;;;;;5121996;28;20027;-70
2023/11/08 08:48:10;;;;;;;1.80;1.63;;;11.20;98.50;;;;;;5121390;28;20007;-70
2023/11/08 08:50:36;;;;;;;2.28;1.45;;;11.20;96.90;;;;;;5103783;28;20078;-70
2023/11/08 08:53:03;;;;;;;2.55;1.65;;;;;;;;;;5100262;28;20034;-69
2023/11/08 08:55:29;;;;;;;3.90;1.40;;;11.30;96.60;;;;;;5101422;28;20051;-70
2023/11/08 08:57:55;;;;;;;2.83;1.55;;;;;;;;;;5101222;28;20019;-70
2023/11/08 09:00:23;;;;;;;1.90;1.38;;;;;;;;;;5101232;28;20028;-70
2023/11/08 09:02:49;;;;;;;2.95;1.70;;;11.40;96.20;;;;;;5101250;28;20365;-70
2023/11/08 09:05:18;;;;;;;1.42;1.13;;;11.60;95.00;;;;;;5101051;28;20043;-69
2023/11/08 09:07:44;;;;;;;1.80;1.02;;;12.00;94.80;;;;;;5101224;28;20008;-69
2023/11/08 09:10:10;;;;;;;3.67;1.15;;;11.70;93.80;;;;;;5101126;28;20038;-70
2023/11/08 09:12:37;;;;;;;2.60;0.80;;;;;;;;;;5101118;28;20334;-71
2023/11/08 09:15:04;;;;;;;1.20;0.85;;;12.00;86.40;;;;;;5101157;28;20020;-70
2023/11/08 09:17:31;;;;;;;1.55;1.17;;;12.00;92.90;;;;;;5101002;28;20057;-70
2023/11/08 09:19:57;;;;;;;3.75;0.98;;;11.90;91.10;;;;;;5100929;28;20040;-70
2023/11/08 09:22:23;;;;;;;1.48;0.70;;;;;;;;;;5101008;28;20125;-70
2023/11/08 09:24:49;;;;;;;1.20;0.80;;;12.00;90.70;;;;;;5099710;28;20211;-69
2023/11/08 09:27:15;;;;;;;1.85;1.17;;;12.20;90.40;;;;;;5100858;28;20023;-70
2023/11/08 09:29:41;;;;;;;1.30;0.93;;;;;;;;;;5100932;28;20019;-70
2023/11/08 09:32:07;;;;;;;2.92;1.60;;;12.00;87.10;;;;;;5100887;28;20031;-70
2023/11/08 09:34:34;;;;;;;2.22;0.88;;;12.10;90.10;;;;;;5099598;28;20019;-80
2023/11/08 09:37:00;;;;;;;1.73;0.98;;;12.00;91.40;;;;;;5099916;28;20024;-74
2023/11/08 09:39:31;;;;;;;6.60;1.42;;;11.80;91.20;;;;;;5100720;28;20094;-69
2023/11/08 09:41:57;;;;;;;1.58;0.93;;;;;;;;;;5100728;28;20074;-70
2023/11/08 09:44:27;;;;;;;2.85;0.90;;;12.10;90.60;;;;;;5101034;28;20016;-70
2023/11/08 09:46:54;;;;;;;1.33;0.70;;;11.90;83.30;;;;;;5100838;28;20219;-71
2023/11/08 09:49:24;;;;;;;2.25;0.88;;;12.00;90.10;;;;;;5105230;28;20110;-71
2023/11/08 09:51:53;;;;;;;3.97;0.75;;;11.80;87.50;;;;;;5121113;28;20341;-69
2023/11/08 09:54:18;;;;;;;;;;;11.80;78.50;;;;;;5121239;28;20026;-69
2023/11/08 09:56:45;;;;;;;2.33;1.05;;;11.70;79.70;;;;;;5121004;28;19908;-69
2023/11/08 09:59:15;;;;;;;1.00;0.80;;;12.00;91.40;;;;;;5121045;28;20342;-69
2023/11/08 10:01:47;;;;;;;0.93;0.57;;;11.60;90.80;;;;;;5122659;28;20050;-69
2023/11/08 10:04:16;;;;;;;1.33;0.80;;;11.80;78.50;;;;;;5124623;28;20043;-69
2023/11/08 10:06:42;;;;;;;2.53;1.13;;;11.80;78.30;;;;;;5124967;28;20098;-69
2023/11/08 10:09:11;;;;;;;2.20;1.13;;;;;;;;;;5124952;28;20031;-70
2023/11/08 10:11:38;;;;;;;1.02;0.90;;;11.70;89.50;;;;;;5123612;28;20027;-69
2023/11/08 10:14:03;;;;;;;6.30;1.00;;;11.40;89.50;;;;;;5124980;28;20031;-69
2023/11/08 10:16:46;;;;;;;2.03;1.10;;;11.60;90.30;;;;;;5123492;28;20817;-69
2023/11/08 10:19:12;;;;;;;1.30;1.20;;;11.50;90.10;;;;;;5124165;28;20032;-69
2023/11/08 10:21:46;;;;;;;1.13;0.80;;;11.80;76.70;;;;;;5124615;28;20307;-72
2023/11/08 10:24:15;;;;;;;2.33;0.77;;;12.10;88.70;;;;;;5125225;28;20019;-71
2023/11/08 10:26:42;;;;;;;2.45;0.80;;;12.30;86.70;;;;;;5124627;28;20024;-75
2023/11/08 10:29:10;;;;;;;1.08;0.90;;;12.20;77.30;;;;;;5107996;28;20211;-72
2023/11/08 10:31:41;;;;;;;1.90;0.70;;;12.50;86.40;;;;;;5103143;28;20046;-72
2023/11/08 10:34:17;;;;;;;3.08;0.90;;;13.00;73.20;;;;;;5102579;28;20039;-71
2023/11/08 10:36:43;;;;;;;4.22;0.93;;;13.10;82.50;;;;;;5103335;28;20440;-72
2023/11/08 10:39:13;;;;;;;1.48;0.88;;;13.10;82.00;;;;;;5102661;28;20043;-71
2023/11/08 10:41:44;;;;;;;2.38;0.90;;;13.10;81.00;;;;;;5102856;28;20027;-72
2023/11/08 10:44:14;;;;;;;3.92;0.90;;;13.10;80.70;;;;;;5103935;28;20019;-72
2023/11/08 10:46:42;;;;;;;5.20;1.00;;;13.00;68.80;;;;;;5104193;28;20028;-72
2023/11/08 10:49:10;;;;;;;3.70;1.13;;;12.70;81.40;;;;;;5103817;28;20349;-72
2023/11/08 10:51:39;;;;;;;2.60;1.08;;;13.40;82.10;;;;;;5103836;28;20028;-72
2023/11/08 10:54:06;;;;;;;0.70;0.70;;;13.00;80.90;;;;;;5103841;28;20220;-72
2023/11/08 10:56:33;;;;;;;3.53;0.90;;;12.90;68.20;;;;;;5103628;28;20060;-72
2023/11/08 10:59:03;;;;;;;2.35;0.80;;;12.70;80.90;;;;;;5103467;28;20375;-73
2023/11/08 11:01:33;;;;;;;1.30;0.80;;;12.70;79.80;;;;;;5102252;28;20043;-72
2023/11/08 11:04:11;;;;;;;1.45;1.05;;;13.30;80.00;;;;;;5103537;28;20023;-72
2023/11/08 11:06:38;;;;;;;1.80;0.65;;;12.90;67.70;;;;;;5102385;28;20064;-72
2023/11/08 11:09:09;;;;;;;0.95;0.80;;;13.00;66.90;;;;;;5103335;28;20075;-72
2023/11/08 11:11:46;;;;;;;2.60;0.70;;;13.30;79.20;;;;;;5103288;28;20396;-71
2023/11/08 11:14:36;;;;;;;0.93;0.70;;;13.40;66.60;;;;;;5103302;28;20027;-73
2023/11/08 11:17:11;;;;;;;2.22;0.85;;;13.70;65.80;;;;;;5103199;28;20028;-72
2023/11/08 11:19:41;;;;;;;1.98;0.90;;;13.80;65.20;;;;;;5103200;28;20080;-72
2023/11/08 11:22:12;;;;;;;4.22;1.02;;;13.80;65.10;;;;;;5103617;28;20020;-72
2023/11/08 11:24:42;;;;;;;3.05;0.93;;;13.70;77.40;;;;;;5103305;28;20035;-72
2023/11/08 11:27:10;;;;;;;3.83;0.77;;;13.60;65.60;;;;;;5103320;28;20016;-72
2023/11/08 11:29:38;;;;;;;2.95;1.10;;;;;;;;;;5103288;28;20028;-72
2023/11/08 11:32:23;;;;;;;3.97;1.15;;;13.60;76.10;;;;;;5103490;28;20031;-73
2023/11/08 11:34:50;;;;;;;2.75;0.80;;;;;;;;;;5102846;28;20087;-72
2023/11/08 11:37:18;;;;;;;6.85;0.85;;;;;;;;;;5103159;28;20046;-70
2023/11/08 11:40:08;;;;;;;5.07;1.17;;;13.80;74.50;;;;;;5102898;28;20032;-71
2023/11/08 11:42:35;;;;;;;2.97;0.80;;;14.10;74.90;;;;;;5102883;28;20016;-72
2023/11/08 11:45:06;;;;;;;2.42;0.70;;;14.40;63.10;;;;;;5102857;28;20026;-72
2023/11/08 11:47:36;;;;;;;3.85;0.70;;;14.20;72.20;;;;;;5103195;28;20156;-72
2023/11/08 11:50:07;;;;;;;2.88;1.15;;;14.40;60.50;;;;;;5102824;28;20048;-71
2023/11/08 11:52:35;;;;;;;2.40;0.90;;;13.70;60.80;;;;;;5103313;28;20028;-71
2023/11/08 11:55:04;;;;;;;5.47;1.10;;;14.20;59.90;;;;;;5102955;28;20039;-72
2023/11/08 11:57:30;;;;;;;1.77;0.73;;;14.40;71.90;;;;;;5102871;28;20020;-72
2023/11/08 12:00:01;;;;;;;2.28;0.77;;;14.00;60.00;;;;;;5102642;28;20027;-72
2023/11/08 12:02:31;;;;;;;2.17;0.60;;;13.80;71.70;;;;;;5102728;28;20035;-72
2023/11/08 12:05:00;;;;;;;1.98;0.82;;;14.10;71.20;;;;;;5102777;28;20020;-72
2023/11/08 12:07:26;;;;;;;1.08;0.98;;;13.70;71.20;;;;;;5101492;28;20012;-73
2023/11/08 12:09:52;;;;;;;0.70;0.52;;;;;;;;;;5102730;28;20051;-73
2023/11/08 12:12:25;;;;;;;5.53;0.50;;;14.10;70.30;;;;;;5103248;28;20258;-73
2023/11/08 12:14:51;;;;;;;5.47;1.08;;;13.90;70.00;;;;;;5103215;28;20027;-73
2023/11/08 12:17:16;;;;;;;2.97;0.90;;;14.00;69.60;;;;;;5102820;28;20112;-73
2023/11/08 12:19:42;;;;;;;2.83;1.48;;;;;;;;;;5100991;28;20039;-73
2023/11/08 12:22:08;;;;;;;2.42;0.95;;;14.10;69.30;;;;;;5101938;28;20031;-70
2023/11/08 12:24:35;;;;;;;1.10;0.80;;;14.00;59.90;;;;;;5101149;28;20377;-71
2023/11/08 12:27:05;;;;;;;1.58;0.82;;;14.60;60.00;;;;;;5101471;28;20330;-72
2023/11/08 12:29:31;;;;;;;2.53;1.27;;;15.90;59.10;;;;;;5102930;28;20047;-73
2023/11/08 12:32:00;;;;;;;1.38;0.80;;;17.60;56.80;;;;;;5102207;28;20030;-72
2023/11/08 12:34:26;;;;;;;2.08;1.10;;;19.30;52.90;;;;;;5101894;28;20242;-72
2023/11/08 12:36:54;;;;;;;4.63;1.95;;;20.70;48.90;;;;;;5101558;28;20335;-73
2023/11/08 12:39:21;;;;;;;;;;;23.40;41.10;;;;;;5101875;28;20030;-72
2023/11/08 12:41:49;;;;;;;2.30;1.13;;;23.40;41.90;;;;;;5101693;28;19910;-73
2023/11/08 12:44:15;;;;;;;2.70;1.33;;;25.00;40.00;;;;;;5101586;28;20025;-73
2023/11/08 12:46:49;;;;;;;4.10;1.40;;;27.30;37.60;;;;;;5101697;28;20016;-73
2023/11/08 12:49:17;;;;;;;1.27;0.70;;;29.20;34.30;;;;;;5101572;28;20049;-73
2023/11/08 12:51:43;;;;;;;2.33;0.90;;;23.40;37.60;;;;;;5102582;28;20035;-73
2023/11/08 12:54:18;;;;;;;2.72;1.00;;;21.50;47.00;;;;;;5102492;28;20024;-72
2023/11/08 12:56:44;;;;;;;4.05;0.90;;;;;;;;;;5101179;28;20072;-72
2023/11/08 12:59:16;;;;;;;2.40;0.80;;;17.90;56.00;;;;;;5101076;28;20024;-71
2023/11/08 13:01:43;;;;;;;4.60;1.20;;;18.20;48.90;;;;;;5099882;28;20073;-74
2023/11/08 13:04:09;;;;;;;1.98;0.80;;;20.40;49.00;;;;;;5101174;28;20031;-71
2023/11/08 13:06:35;;;;;;;1.25;0.85;;;22.70;46.90;;;;;;5101163;28;20027;-71
2023/11/08 13:09:02;;;;;;;2.13;0.80;;;;;;;;;;5101263;28;20235;-72
2023/11/08 13:11:28;;;;;;;2.88;0.80;;;18.50;52.80;;;;;;5101321;28;20020;-72
2023/11/08 13:13:54;;;;;;;3.00;0.88;;;;;;;;;;5101315;28;20080;-73
2023/11/08 13:16:20;;;;;;;3.00;0.90;;;16.50;59.10;;;;;;5103905;28;20024;-72
2023/11/08 13:18:45;;;;;;;2.65;0.80;;;19.70;55.70;;;;;;5119556;28;20203;-73
2023/11/08 13:21:12;;;;;;;2.38;0.85;;;;;;;;;;5118319;28;20023;-72
2023/11/08 13:23:38;;;;;;;3.05;0.63;;;18.00;54.40;;;;;;5120141;28;20026;-72
2023/11/08 13:26:04;;;;;;;2.42;0.85;;;20.60;53.10;;;;;;5121353;28;20560;-71